Home > Products > Valid Products > TAF

000
FTUS45 KPIH 010500
TAFSUN
TAF
KSUN 010520Z 0106/0206 32011KT P6SM SKC
     FM011700 13008KT P6SM SKC
     FM020300 31010KT P6SM SKC
      AMD LTD TO CLD VIS AND WIND TIL 011300=



000
FTUS45 KPIH 010500
TAFBYI
TAF
KBYI 010520Z 0106/0206 21007KT P6SM SKC
     FM011700 27011KT P6SM SKC
     FM020200 VRB05KT P6SM SKC=



000
FTUS45 KPIH 010500
TAFPIH
TAF
KPIH 010520Z 0106/0206 22011KT P6SM FEW200
     FM011700 26012G20KT P6SM SKC
     FM020200 21010KT P6SM SKC=



000
FTUS45 KPIH 010500
TAFIDA
TAF
KIDA 010520Z 0106/0206 19007KT P6SM SCT050 BKN200
     FM011700 22011G18KT P6SM SKC
     FM020200 19007KT P6SM SKC=



000
FTUS45 KPIH 312300
TAFIDA
TAF
KIDA 312320Z 0100/0124 21012G20KT P6SM SCT050 BKN200
     FM010200 19007KT P6SM SCT050 BKN200
     FM011700 22011KT P6SM SKC=



000
FTUS45 KPIH 312300
TAFSUN
TAF
KSUN 312320Z 0100/0124 21010KT P6SM SCT070
     FM010300 32011KT P6SM SKC
     FM011700 13008KT P6SM SKC
      AMD LTD TO CLD VIS AND WIND 0105/0113=



000
FTUS45 KPIH 312300
TAFPIH
TAF
KPIH 312320Z 0100/0124 24013G20KT P6SM FEW050
     FM010100 22011KT P6SM FEW200
     FM011700 26012G20KT P6SM SKC=



000
FTUS45 KPIH 312300
TAFBYI
TAF
KBYI 312320Z 0100/0124 26010G18KT P6SM SKC
     FM010200 21007KT P6SM SKC
     FM011700 27011KT P6SM SKC=



000
FTUS45 KPIH 311700
TAFBYI
TAF
KBYI 311720Z 3118/0118 27010G20KT P6SM SKC
     FM010200 21007KT P6SM SKC
     FM011700 27011KT P6SM SKC=



000
FTUS45 KPIH 311700
TAFIDA
TAF
KIDA 311720Z 3118/0118 21011KT P6SM BKN030
     FM311900 21011G18KT P6SM BKN090
     FM010200 19007KT P6SM SCT050 BKN200
     FM011700 22011KT P6SM SKC=



000
FTUS45 KPIH 311700
TAFSUN
TAF
KSUN 311720Z 3118/0118 14009KT P6SM SCT090
     FM010200 32011KT P6SM SKC=



000
FTUS45 KPIH 311700
TAFPIH
TAF
KPIH 311720Z 3118/0118 24015G25KT P6SM BKN025
     FM311900 24015G25KT P6SM SCT020
     FM010100 22011KT P6SM SCT200
     FM011700 26010G20KT P6SM SKC=



000
FTUS45 KPIH 311200 AAA
TAFIDA
TAF AMD
KIDA 311259Z 3113/0112 21011KT P6SM VCSH BKN016
     FM311800 21014G20KT P6SM BKN090
     FM010200 19007KT P6SM SCT050 BKN200=



000
FTUS45 KPIH 311100 CCB
TAFIDA
TAF COR
KIDA 311155Z 3112/0112 VRB05KT P6SM VCSH SCT018 BKN060
     FM311400 21011KT P6SM VCSH BKN018
     FM311800 21014G20KT P6SM BKN090
     FM010200 19007KT P6SM SCT050 BKN200=



000
FTUS45 KPIH 311100 CCA
TAFIDA
TAF COR
KIDA 311152Z 3112/0112 VRB05KT P6SM VCSH SCT018 BKN060
     FM311400 21011KT P6SM BKN018
     FM311800 21014G20KT P6SM BKN090
     FM010200 19007KT P6SM SCT050 BKN200=



000
FTUS45 KPIH 311100 CCA
TAFPIH
TAF COR
KPIH 311152Z 3112/0112 24013G20KT P6SM OVC016
     FM311600 24015G25KT P6SM SCT020
     FM010000 22011KT P6SM SCT200=



000
FTUS45 KPIH 311100
TAFSUN
TAF
KSUN 311122Z 3112/0112 31006KT P6SM SCT100
     FM311700 13010KT P6SM SCT050
     FM010200 32008KT P6SM SCT200
      AMD LTD TO CLD VIS AND WIND TIL 311300=



000
FTUS45 KPIH 311100
TAFIDA
TAF
KIDA 311122Z 3112/0112 VRB05KT P6SM VCSH SCT020 BKN060
     FM311400 21011KT P6SM BKN020
     FM311800 21014G20KT P6SM BKN090
     FM010200 19007KT P6SM SCT050 BKN200=



000
FTUS45 KPIH 311100
TAFPIH
TAF
KPIH 311122Z 3112/0112 23013G20KT P6SM OVC019
     FM311600 24015G25KT P6SM SCT020
     FM010000 22011KT P6SM SCT200=



000
FTUS45 KPIH 311100
TAFBYI
TAF
KBYI 311122Z 3112/0112 26013G23KT P6SM SCT030 SCT100
     FM311900 26010G20KT P6SM SCT150
     FM010200 21007KT P6SM SCT200=



000
FTUS45 KPIH 310900 AAA
TAFIDA
TAF AMD
KIDA 310922Z 3109/0106 VRB05KT P6SM VCSH SCT050 BKN100
     FM311500 21011KT P6SM SCT020 BKN100
     FM311700 21014G20KT P6SM BKN120
     FM010200 19007KT P6SM SCT050 BKN200=



000
FTUS45 KPIH 310700 AAA
TAFPIH
TAF AMD
KPIH 310749Z 3108/0106 22014G24KT P6SM -SHRA SCT050 OVC070
     FM310900 21013G20KT P6SM SCT010 SCT050
     FM311700 24015G25KT P6SM BKN200
     FM010200 22011KT P6SM SCT200=



000
FTUS45 KPIH 310600 AAA
TAFBYI
TAF AMD
KBYI 310658Z 3107/0106 27013G23KT P6SM VCSH BKN070
     FM310800 25012G18KT P6SM SCT050 BKN100
     FM311700 26015G25KT P6SM SCT150
     FM010200 21007KT P6SM SCT200=



000
FTUS45 KPIH 310500 CCA
TAFPIH
TAF COR
KPIH 310524Z 3106/0106 19008KT P6SM VCSH SCT120
     FM310700 25012G23KT P6SM -SHRA VCTS SCT050CB OVC090
     FM310900 21013G20KT P6SM SCT010 SCT050
     FM311700 24015G25KT P6SM BKN200
     FM010200 22011KT P6SM SCT200=



000
FTUS45 KPIH 310500 CCA
TAFBYI
TAF COR
KBYI 310523Z 3106/0106 27025G35KT P6SM -SHRA VCTS BKN070CB
     FM310800 25012G18KT P6SM SCT050 BKN100
     FM311700 26015G25KT P6SM SCT150
     FM010200 21007KT P6SM SCT200=



000
FTUS45 KPIH 310500
TAFBYI
TAF
KBYI 310520Z 3106/0106 27012G25KT P6SM -SHRA VCTS BKN070CB
     FM310800 25012G18KT P6SM SCT050 BKN100
     FM311700 26015G25KT P6SM SCT150
     FM010200 21007KT P6SM SCT200=



000
FTUS45 KPIH 310500
TAFPIH
TAF
KPIH 310520Z 3106/0106 25012G23KT P6SM -SHRA VCTS SCT050CB OVC090
     FM310900 21013G20KT P6SM SCT010 SCT050
     FM311700 24015G25KT P6SM BKN200
     FM010200 22011KT P6SM SCT200=



000
FTUS45 KPIH 310500
TAFIDA
TAF
KIDA 310520Z 3106/0106 20011KT P6SM VCSH SCT030 BKN050
     FM310800 21013G20KT P6SM -SHRA SCT020 BKN050
     FM311500 21011KT P6SM SCT020 BKN100
     FM311700 21014G20KT P6SM BKN120
     FM010200 19007KT P6SM SCT050 BKN200=



000
FTUS45 KPIH 310500
TAFSUN
TAF
KSUN 310520Z 3106/0106 31007KT P6SM -SHRA SCT050 BKN100
     FM311000 31006KT P6SM BKN100
     FM311700 13010KT P6SM SCT050
     FM010200 32008KT P6SM SCT200
      AMD LTD TO CLD VIS AND WIND TIL 311300=



000
FTUS45 KPIH 310400 AAA
TAFBYI
TAF AMD
KBYI 310432Z 3105/3124 25010KT P6SM -SHRA BKN070
     FM310500 27025G35KT 4SM -SHRA BLDU BKN070
     FM310600 27012G22KT P6SM -SHRA BKN070
     FM310900 25011KT P6SM SCT050 BKN100
     FM311700 26015G25KT P6SM SCT150=



000
FTUS45 KPIH 310100 AAA
TAFPIH
TAF AMD
KPIH 310134Z 3102/3124 24011KT P6SM BKN070
     FM310500 22011KT P6SM VCSH SCT050 OVC090
     FM311100 21011KT P6SM SCT050
     FM311700 24015G25KT P6SM BKN200=



000
FTUS45 KPIH 310100 AAA
TAFSUN
TAF AMD
KSUN 310134Z 3102/3124 23011G20KT P6SM SCT080 BKN150
     FM310400 31007KT P6SM VCSH SCT050 BKN100
     FM311000 31006KT P6SM BKN100
     FM311700 13010KT P6SM SCT050
      AMD LTD TO CLD VIS AND WIND 3105/3113=



000
FTUS45 KPIH 302300
TAFSUN
TAF
KSUN 302321Z 3100/3124 19011G20KT P6SM SCT080 BKN150
     FM310400 31007KT P6SM VCSH SCT050 BKN100
     FM311000 31006KT P6SM BKN100
     FM311700 13010KT P6SM SCT050
      AMD LTD TO CLD VIS AND WIND 3105/3113=



000
FTUS45 KPIH 302300
TAFPIH
TAF
KPIH 302321Z 3100/3124 25015G24KT P6SM SCT100 OVC200
     FM310200 24013G20KT P6SM BKN070
     FM310500 22011KT P6SM VCSH SCT050 OVC090
     FM311100 21011KT P6SM SCT050
     FM311700 24015G25KT P6SM BKN200=



000
FTUS45 KPIH 302300
TAFBYI
TAF
KBYI 302321Z 3100/3124 27011KT P6SM SCT100 OVC200
     FM310300 24011KT P6SM BKN070
     FM310900 25011KT P6SM SCT050 BKN100
     FM311700 26015G25KT P6SM SCT150=



000
FTUS45 KPIH 302300
TAFIDA
TAF
KIDA 302321Z 3100/3124 19012G20KT P6SM SCT070 BKN100
     FM310600 20011KT P6SM VCSH SCT030 BKN050
     FM311500 21010KT P6SM SCT050 BKN100
     FM311700 21014G20KT P6SM BKN120=



000
FTUS45 KPIH 302100 AAA
TAFBYI
TAF AMD
KBYI 302109Z 3021/3118 27011KT P6SM SCT100 OVC200
     FM310100 22011KT P6SM VCSH BKN070
     FM311700 26015G25KT P6SM BKN150=



000
FTUS45 KPIH 302100 AAA
TAFIDA
TAF AMD
KIDA 302108Z 3021/3118 22011KT P6SM VCSH SCT070 BKN100
     FM310200 20011KT P6SM VCSH BKN070
     FM311700 21015G25KT P6SM BKN120=



000
FTUS45 KPIH 302100 AAA
TAFPIH
TAF AMD
KPIH 302103Z 3021/3118 25015G24KT P6SM VCSH SCT100 OVC200
     FM310200 24013G20KT P6SM VCSH BKN070
     FM311700 24020G30KT P6SM BKN120 BKN200=



000
FTUS45 KPIH 301700
TAFIDA
TAF
KIDA 301720Z 3018/3118 22015G25KT P6SM VCTS BKN120CB OVC200
     FM310200 20011KT P6SM VCSH BKN070
     FM311700 21015G25KT P6SM BKN120=



000
FTUS45 KPIH 301700
TAFBYI
TAF
KBYI 301720Z 3018/3118 26012G22KT P6SM BKN120
     FM302100 26014G24KT P6SM VCTS SCT100CB OVC200
     FM310200 22011KT P6SM VCSH BKN070
     FM311700 26015G25KT P6SM BKN150=



000
FTUS45 KPIH 301700
TAFPIH
TAF
KPIH 301720Z 3018/3118 23020G30KT P6SM SCT120 OVC200
     FM302100 23020G30KT P6SM VCTS SCT100CB OVC200
     FM310200 24013G20KT P6SM VCSH BKN070
     FM311700 24020G30KT P6SM BKN120 BKN200=



000
FTUS45 KPIH 301700
TAFSUN
TAF
KSUN 301720Z 3018/3118 16008KT P6SM VCTS SCT060 BKN100CB
     FM302000 23014G25KT P6SM VCTS SCT060CB BKN150
     FM310200 31007KT P6SM VCSH SCT050 BKN100=



000
FTUS45 KPIH 301200 AAA
TAFBYI
TAF AMD
KBYI 301244Z 3013/3112 21008KT P6SM SCT070
     FM301600 26012G22KT P6SM VCTS BKN120CB
     FM310200 22012KT P6SM VCSH BKN070=



000
FTUS45 KPIH 301200 AAA
TAFPIH
TAF AMD
KPIH 301243Z 3013/3112 22010KT P6SM SCT070
     FM301700 23020G30KT 6SM BLDU VCTS SCT120CB BKN200
     FM310200 24013G20KT P6SM VCSH BKN070=



000
FTUS45 KPIH 301200 AAA
TAFSUN
TAF AMD
KSUN 301242Z 3013/3112 32009KT P6SM VCTS SCT060 BKN100CB
     FM301800 16008KT P6SM VCTS SCT060 BKN100CB
     FM302000 23014G25KT P6SM SCT060
     FM310200 31007KT P6SM VCSH SCT050 BKN100=



000
FTUS45 KPIH 301100
TAFSUN
TAF
KSUN 301120Z 3012/3112 32009KT P6SM VCSH SCT060 BKN100
     FM301800 18008KT P6SM VCTS SCT060 BKN100CB
     FM302000 23014G25KT P6SM SCT060
     FM310200 31007KT P6SM VCSH SCT050 BKN100
      AMD LTD TO CLD VIS AND WIND TIL 301300=



000
FTUS45 KPIH 301100
TAFPIH
TAF
KPIH 301120Z 3012/3112 22007KT P6SM SCT070
     FM301700 23020G30KT 6SM BLDU SCT120 BKN200
     FM310200 24013G20KT P6SM VCSH BKN070=



000
FTUS45 KPIH 301100
TAFIDA
TAF
KIDA 301120Z 3012/3112 22010KT P6SM SCT070 BKN200
     FM301800 23020G30KT 6SM BLDU VCTS BKN120CB
     FM310200 20014KT P6SM VCSH BKN070=



000
FTUS45 KPIH 301100
TAFBYI
TAF
KBYI 301120Z 3012/3112 23008KT P6SM SCT070
     FM301600 26012G22KT P6SM BKN140
     FM310200 22012KT P6SM VCSH BKN070=



000
FTUS45 KPIH 300500
TAFBYI
TAF
KBYI 300520Z 3006/3106 17008KT P6SM VCSH FEW080 BKN110
     FM301400 25015G25KT P6SM BKN140
     FM302300 28011KT P6SM VCSH BKN070=



000
FTUS45 KPIH 300500
TAFIDA
TAF
KIDA 300520Z 3006/3106 20010KT P6SM VCSH SCT070 BKN100
     FM301100 22010KT P6SM SCT070 BKN200
     FM301500 23015G25KT P6SM BKN140
     FM302100 22020G30KT 6SM BLDU SCT070 BKN200
     FM310200 20014KT P6SM SCT070=



000
FTUS45 KPIH 300500
TAFPIH
TAF
KPIH 300520Z 3006/3106 19010KT P6SM VCSH FEW070 BKN100
     FM301000 20013G20KT P6SM SCT070 BKN200
     FM301400 23020G30KT 6SM BLDU SCT120 BKN200
     FM310100 24013G20KT P6SM VCSH BKN070=



000
FTUS45 KPIH 300500
TAFSUN
TAF
KSUN 300520Z 3006/3106 29011KT P6SM VCTS FEW060CB BKN100
     FM300800 32009KT P6SM VCSH SCT060 BKN100
     FM301500 18008KT P6SM SCT060 BKN200
     FM302000 23014G25KT P6SM SCT060
     FM310200 31007KT P6SM SCT050 BKN150
      AMD LTD TO CLD VIS AND WIND TIL 301300=



000
FTUS45 KPIH 292300
TAFBYI
TAF
KBYI 292323Z 3000/3024 VRB05KT P6SM VCTS FEW070CB SCT110
     FM300200 17008KT P6SM VCSH FEW080 BKN110
     FM301400 23015G25KT P6SM BKN140=



000
FTUS45 KPIH 292300
TAFSUN
TAF
KSUN 292323Z 3000/3024 23011KT P6SM SCT100
     FM300300 29011KT P6SM VCTS FEW060CB BKN100
     FM300900 32009KT P6SM VCSH SCT060 BKN100
     FM301500 18008KT P6SM SCT060 BKN200
     FM302000 24014G25KT P6SM SCT060
      AMD LTD TO CLD VIS AND WIND 3005/3013=



000
FTUS45 KPIH 292300
TAFPIH
TAF
KPIH 292323Z 3000/3024 25009KT P6SM VCTS FEW070CB SCT100
     FM300300 19010KT P6SM VCSH FEW070 BKN100
     FM301000 20013G20KT P6SM SCT070 BKN200
     FM301400 23020G30KT P6SM SCT120 BKN200=



000
FTUS45 KPIH 292300
TAFIDA
TAF
KIDA 292323Z 3000/3024 22012G18KT P6SM FEW100
     FM300200 20010KT P6SM VCSH SCT070 BKN100
     FM301100 22010KT P6SM SCT070 BKN200
     FM301500 23015G25KT P6SM BKN140
     FM302100 22020G30KT P6SM SCT070 BKN200=



000
FTUS45 KPIH 292100 AAA
TAFIDA
TAF AMD
KIDA 292135Z 2922/3018 22012KT P6SM FEW100
     FM300200 20010KT P6SM VCSH SCT070 BKN100
     FM301500 23015G25KT P6SM BKN140=



000
FTUS45 KPIH 292100 AAA
TAFPIH
TAF AMD
KPIH 292130Z 2922/3018 25011KT P6SM FEW100
     FM300200 19010KT P6SM VCSH FEW070 BKN100
     FM301400 23020G30KT P6SM BKN140=



000
FTUS45 KPIH 291700
TAFIDA
TAF
KIDA 291739Z 2918/3018 22011KT P6SM SCT100
     FM292000 22012G22KT P6SM FEW100
     FM300200 19010KT P6SM VCSH SCT070 BKN100
     FM301500 23015G25KT P6SM BKN140=



000
FTUS45 KPIH 291700
TAFPIH
TAF
KPIH 291739Z 2918/3018 VRB05KT P6SM SCT120
     FM291900 26010G20KT P6SM FEW100
     FM300200 19010KT P6SM VCSH FEW070 BKN100
     FM301400 23020G30KT P6SM BKN140=



000
FTUS45 KPIH 291700
TAFBYI
TAF
KBYI 291739Z 2918/3018 VRB05KT P6SM SCT110
     FM300200 17008KT P6SM VCSH FEW080 BKN110
     FM301400 23015G25KT P6SM BKN140=



000
FTUS45 KPIH 291700
TAFSUN
TAF
KSUN 291739Z 2918/3018 15007KT P6SM SCT100
     FM292200 21011KT P6SM SCT100
     FM300200 27011KT P6SM VCTS FEW060 BKN080CB
     FM300700 32010G15KT P6SM VCSH SCT060 BKN080=



000
FTUS45 KPIH 291100
TAFPIH
TAF
KPIH 291120Z 2912/3012 VRB05KT P6SM SCT120
     FM291900 26010G20KT P6SM FEW100
     FM300200 19010KT P6SM BKN100=



000
FTUS45 KPIH 291100
TAFSUN
TAF
KSUN 291120Z 2912/3012 32010KT P6SM SCT100
     FM291800 15007KT P6SM SCT100
     FM292200 21011KT P6SM SCT100
     FM300200 31008KT P6SM VCTS BKN090CB
      AMD LTD TO CLD VIS AND WIND TIL 291300=



000
FTUS45 KPIH 291100
TAFBYI
TAF
KBYI 291120Z 2912/3012 VRB05KT P6SM SCT100
     FM300200 17008KT P6SM BKN100=



000
FTUS45 KPIH 291100
TAFIDA
TAF
KIDA 291120Z 2912/3012 22007KT P6SM SCT100
     FM291900 22012G22KT P6SM FEW100
     FM300200 21008KT P6SM BKN070=



    US Dept of Commerce
    National Oceanic and Atmospheric Administration
    National Weather Service
    1325 East West Highway
    Silver Spring, MD 20910
    Page Author: NWS Internet Services Team
Disclaimer
Information Quality
Credits
Glossary
Privacy Policy
Freedom of Information Act (FOIA)
About Us
Career Opportunities